Time;durP1;ratioP1;P1;durP2;ratioP2;P2;SDS_P1;SDS_P2;PMS_P1;PMS_P2;Temp;Humidity;BMP_temperature;BMP_pressure;BME280_temperature;BME280_humidity;BME280_pressure;Samples;Min_cycle;Max_cycle;Signal;HPM_P1;HPM_P2
2023/09/17 00:00:41;;;;;;;1.77;0.85;;;18.00;99.90;;;;;;5002311;28;20037;-82
2023/09/17 00:03:07;;;;;;;1.40;0.95;;;17.90;99.90;;;;;;5000036;28;20026;-82
2023/09/17 00:05:34;;;;;;;1.00;0.82;;;17.90;99.90;;;;;;4996917;28;20033;-82
2023/09/17 00:08:01;;;;;;;0.57;0.57;;;17.90;99.90;;;;;;5001034;28;20046;-82
2023/09/17 00:10:27;;;;;;;0.50;0.50;;;18.00;99.90;;;;;;4998873;28;20646;-82
2023/09/17 00:12:55;;;;;;;1.15;0.90;;;18.00;99.90;;;;;;4999924;28;20030;-82
2023/09/17 00:15:22;;;;;;;0.82;0.82;;;18.00;99.90;;;;;;4997582;28;20416;-82
2023/09/17 00:17:48;;;;;;;2.40;1.58;;;18.00;99.90;;;;;;5007328;28;20026;-82
2023/09/17 00:20:15;;;;;;;5.22;1.00;;;17.90;99.90;;;;;;5001278;28;20038;-82
2023/09/17 00:22:41;;;;;;;1.38;0.57;;;17.90;99.90;;;;;;4996598;28;20030;-82
2023/09/17 00:25:08;;;;;;;0.40;0.40;;;17.90;99.90;;;;;;4999753;28;20041;-82
2023/09/17 00:27:34;;;;;;;3.10;2.10;;;17.80;99.90;;;;;;5009388;28;20030;-82
2023/09/17 00:30:01;;;;;;;4.00;1.20;;;17.70;99.90;;;;;;4993882;28;20501;-82
2023/09/17 00:32:27;;;;;;;0.82;0.75;;;17.70;99.90;;;;;;5000756;28;20040;-82
2023/09/17 00:34:54;;;;;;;1.42;1.02;;;17.60;99.90;;;;;;5005464;28;20022;-83
2023/09/17 00:37:20;;;;;;;0.60;0.57;;;17.50;99.90;;;;;;5002085;28;20037;-82
2023/09/17 00:39:46;;;;;;;1.15;0.75;;;17.60;99.90;;;;;;4997060;28;20030;-82
2023/09/17 00:42:12;;;;;;;1.60;0.98;;;17.50;99.90;;;;;;5000274;28;20365;-82
2023/09/17 00:44:38;;;;;;;1.25;1.15;;;17.50;99.90;;;;;;5010621;28;20037;-82
2023/09/17 00:47:05;;;;;;;1.20;0.82;;;17.40;99.90;;;;;;4999048;28;20030;-82
2023/09/17 00:49:32;;;;;;;1.38;1.15;;;17.30;99.90;;;;;;4994319;28;20075;-82
2023/09/17 00:51:59;;;;;;;3.33;1.00;;;17.20;99.90;;;;;;4995497;28;20034;-82
2023/09/17 00:54:28;;;;;;;0.98;0.80;;;17.20;99.90;;;;;;4999161;28;20435;-83
2023/09/17 00:56:55;;;;;;;0.60;0.60;;;17.10;99.90;;;;;;4996727;28;20498;-82
2023/09/17 00:59:23;;;;;;;0.22;0.20;;;17.10;99.90;;;;;;5001579;28;20371;-82
2023/09/17 01:01:50;;;;;;;0.98;0.88;;;17.10;99.90;;;;;;5002761;28;20060;-82
2023/09/17 01:04:17;;;;;;;1.45;1.23;;;17.10;99.90;;;;;;5009598;28;20034;-82
2023/09/17 01:06:46;;;;;;;0.55;0.55;;;17.10;99.90;;;;;;5005707;28;20077;-82
2023/09/17 01:09:13;;;;;;;0.60;0.60;;;17.10;99.90;;;;;;5000884;28;20038;-82
2023/09/17 01:11:39;;;;;;;4.30;2.05;;;17.10;99.90;;;;;;4996590;28;20049;-82
2023/09/17 01:14:16;;;;;;;1.27;1.13;;;17.10;99.90;;;;;;4994125;28;20038;-82
2023/09/17 01:16:45;;;;;;;1.15;1.05;;;17.20;99.90;;;;;;5003235;28;20459;-82
2023/09/17 01:19:38;;;;;;;1.23;1.05;;;17.20;99.90;;;;;;5000436;28;20045;-81
2023/09/17 01:22:09;;;;;;;0.95;0.88;;;17.20;99.90;;;;;;5010403;28;20046;-82
2023/09/17 01:25:06;;;;;;;2.47;0.95;;;17.20;99.90;;;;;;5001099;28;20038;-81
2023/09/17 01:27:39;;;;;;;0.80;0.60;;;17.30;99.90;;;;;;4999283;28;20057;-81
2023/09/17 01:30:15;;;;;;;0.57;0.50;;;17.40;99.90;;;;;;4995672;28;20042;-82
2023/09/17 01:32:45;;;;;;;0.93;0.85;;;17.50;99.90;;;;;;4997736;28;20394;-82
2023/09/17 01:35:15;;;;;;;2.05;1.15;;;17.60;99.90;;;;;;4994243;28;20029;-82
2023/09/17 01:37:55;;;;;;;1.83;1.45;;;17.70;99.90;;;;;;4997414;28;20037;-82
2023/09/17 01:40:23;;;;;;;2.70;1.40;;;17.70;99.90;;;;;;4996089;28;20022;-82
2023/09/17 01:42:51;;;;;;;3.38;1.63;;;17.70;99.90;;;;;;5006898;28;20042;-82
2023/09/17 01:45:18;;;;;;;2.53;1.48;;;17.70;99.90;;;;;;5016977;28;20037;-82
2023/09/17 01:47:47;;;;;;;4.38;1.80;;;17.70;99.90;;;;;;4997325;28;20038;-82
2023/09/17 01:50:15;;;;;;;1.48;1.08;;;17.70;99.90;;;;;;4998557;28;20038;-82
2023/09/17 01:52:43;;;;;;;4.85;1.60;;;17.70;99.90;;;;;;5001275;28;20037;-82
2023/09/17 01:55:10;;;;;;;0.77;0.77;;;17.70;99.90;;;;;;4997861;28;20030;-82
2023/09/17 01:57:36;;;;;;;1.98;1.33;;;17.70;99.90;;;;;;4998780;28;20030;-82
2023/09/17 02:00:38;;;;;;;2.97;1.70;;;17.70;99.90;;;;;;5010633;28;20600;-82
2023/09/17 02:02:56;;;;;;;1.40;1.17;;;17.70;99.90;;;;;;5004530;28;20042;-82
2023/09/17 02:05:25;;;;;;;0.90;0.88;;;17.70;99.90;;;;;;4998445;28;20039;-82
2023/09/17 02:07:52;;;;;;;2.22;1.35;;;17.80;99.90;;;;;;5000449;28;20033;-82
2023/09/17 02:10:20;;;;;;;1.55;0.85;;;17.80;99.90;;;;;;5001242;28;20470;-82
2023/09/17 02:12:47;;;;;;;0.60;0.40;;;17.90;99.90;;;;;;4998678;28;20046;-83
2023/09/17 02:15:14;;;;;;;1.15;0.68;;;17.90;99.90;;;;;;5009542;28;20033;-82
2023/09/17 02:17:42;;;;;;;2.00;1.10;;;17.90;99.90;;;;;;4995157;28;20482;-82
2023/09/17 02:20:11;;;;;;;1.23;1.02;;;18.00;99.90;;;;;;5007916;28;20034;-82
2023/09/17 02:22:38;;;;;;;1.75;1.33;;;18.00;99.90;;;;;;5007169;28;20046;-82
2023/09/17 02:25:05;;;;;;;1.00;0.73;;;18.00;99.90;;;;;;5000724;28;20025;-82
2023/09/17 02:27:33;;;;;;;1.45;0.95;;;18.10;99.90;;;;;;5002616;28;20043;-81
2023/09/17 02:30:00;;;;;;;2.35;0.90;;;18.10;99.90;;;;;;4998926;28;20065;-82
2023/09/17 02:32:26;;;;;;;1.20;1.08;;;18.10;99.90;;;;;;4998485;28;20042;-82
2023/09/17 02:34:53;;;;;;;2.05;1.48;;;18.10;99.90;;;;;;4999151;28;20041;-82
2023/09/17 02:37:19;;;;;;;2.17;0.85;;;18.10;99.90;;;;;;4997023;28;20046;-82
2023/09/17 02:39:45;;;;;;;1.40;1.05;;;18.10;99.90;;;;;;4993054;28;20038;-81
2023/09/17 02:42:12;;;;;;;1.10;1.00;;;18.20;99.90;;;;;;4978504;28;20057;-82
2023/09/17 02:44:39;;;;;;;1.50;0.95;;;18.20;99.90;;;;;;5018524;28;20366;-83
2023/09/17 02:47:05;;;;;;;1.50;1.27;;;18.20;99.90;;;;;;4997210;28;20509;-82
2023/09/17 02:49:31;;;;;;;1.92;1.02;;;18.10;99.90;;;;;;5007738;28;20038;-82
2023/09/17 02:51:58;;;;;;;1.52;1.20;;;18.10;99.90;;;;;;5001551;28;20357;-82
2023/09/17 02:54:24;;;;;;;1.23;1.13;;;18.10;99.90;;;;;;5002047;28;20045;-82
2023/09/17 02:56:50;;;;;;;2.00;0.75;;;18.10;99.90;;;;;;5013093;28;20034;-82
2023/09/17 02:59:16;;;;;;;2.30;1.00;;;18.10;99.90;;;;;;5004969;28;20037;-82
2023/09/17 03:01:42;;;;;;;0.98;0.88;;;18.10;99.90;;;;;;5012958;28;20042;-82
2023/09/17 03:04:09;;;;;;;2.25;1.63;;;18.10;99.90;;;;;;4994436;28;20042;-82
2023/09/17 03:06:35;;;;;;;1.20;1.10;;;18.00;99.90;;;;;;5001941;28;20038;-82
2023/09/17 03:09:01;;;;;;;2.50;1.20;;;18.10;99.90;;;;;;5006405;28;20045;-82
2023/09/17 03:11:28;;;;;;;2.67;1.05;;;18.10;99.90;;;;;;5003718;28;20377;-82
2023/09/17 03:13:59;;;;;;;4.50;2.00;;;18.10;99.90;;;;;;5005696;28;20038;-82
2023/09/17 03:16:25;;;;;;;1.00;0.77;;;18.10;99.90;;;;;;5001389;28;20033;-82
2023/09/17 03:18:51;;;;;;;2.28;1.02;;;18.10;99.90;;;;;;5002097;28;20042;-82
2023/09/17 03:21:18;;;;;;;1.27;0.98;;;18.10;99.90;;;;;;4996996;28;20042;-82
2023/09/17 03:23:46;;;;;;;1.92;1.15;;;18.10;99.90;;;;;;5000340;28;20038;-83
2023/09/17 03:26:13;;;;;;;1.13;0.88;;;18.20;99.90;;;;;;5012516;28;20050;-82
2023/09/17 03:28:39;;;;;;;2.85;1.63;;;18.20;99.90;;;;;;5010301;28;20042;-82
2023/09/17 03:31:06;;;;;;;2.72;1.33;;;18.30;99.90;;;;;;5001060;28;20042;-82
2023/09/17 03:33:32;;;;;;;1.58;1.40;;;18.40;99.90;;;;;;5003218;28;20037;-82
2023/09/17 03:36:00;;;;;;;2.60;1.20;;;18.40;99.90;;;;;;5002976;28;20049;-82
2023/09/17 03:38:26;;;;;;;2.47;2.13;;;18.40;99.90;;;;;;5023940;28;20045;-83
2023/09/17 03:40:52;;;;;;;1.30;1.20;;;18.40;99.90;;;;;;5002829;28;20375;-82
2023/09/17 03:43:19;;;;;;;2.20;1.35;;;18.40;99.90;;;;;;5015559;28;20091;-83
2023/09/17 03:45:46;;;;;;;2.60;1.08;;;18.40;99.90;;;;;;4998563;28;20037;-82
2023/09/17 03:48:12;;;;;;;1.88;0.88;;;18.50;99.90;;;;;;4999092;28;20029;-82
2023/09/17 03:50:40;;;;;;;5.55;1.17;;;18.40;99.90;;;;;;5002095;28;20041;-82
2023/09/17 03:53:07;;;;;;;1.55;1.45;;;18.50;99.90;;;;;;5010961;28;20375;-82
2023/09/17 03:55:34;;;;;;;2.13;1.15;;;18.40;99.90;;;;;;5000384;28;20030;-82
2023/09/17 03:58:03;;;;;;;1.48;1.00;;;18.40;99.90;;;;;;4995925;28;20372;-82
2023/09/17 04:00:34;;;;;;;1.45;1.35;;;18.40;99.90;;;;;;5004443;28;20452;-82
2023/09/17 04:03:01;;;;;;;2.15;1.92;;;18.40;99.90;;;;;;5012281;28;20049;-82
2023/09/17 04:05:28;;;;;;;2.13;1.33;;;18.40;99.90;;;;;;5011594;28;20038;-82
2023/09/17 04:07:55;;;;;;;2.35;1.50;;;18.40;99.90;;;;;;4999128;28;20038;-82
2023/09/17 04:10:21;;;;;;;2.17;1.80;;;18.40;99.90;;;;;;4999576;28;20038;-82
2023/09/17 04:12:48;;;;;;;3.72;2.05;;;18.40;99.90;;;;;;5010108;28;20068;-82
2023/09/17 04:15:20;;;;;;;2.75;1.60;;;18.30;99.90;;;;;;4996688;28;20482;-82
2023/09/17 04:17:48;;;;;;;2.92;1.27;;;18.30;99.90;;;;;;5005774;28;20026;-81
2023/09/17 04:20:18;;;;;;;0.98;0.85;;;18.30;99.90;;;;;;5001594;28;20474;-82
2023/09/17 04:22:48;;;;;;;1.15;1.08;;;18.20;99.90;;;;;;5012160;28;20047;-82
2023/09/17 04:25:16;;;;;;;2.40;1.48;;;18.20;99.90;;;;;;5004457;28;20037;-82
2023/09/17 04:27:44;;;;;;;0.82;0.73;;;18.20;99.90;;;;;;5008800;28;20138;-82
2023/09/17 04:30:15;;;;;;;3.35;1.08;;;18.10;99.90;;;;;;5000138;28;20073;-82
2023/09/17 04:32:45;;;;;;;2.65;1.67;;;18.10;99.90;;;;;;5010457;28;20042;-82
2023/09/17 04:35:12;;;;;;;;;;;18.00;99.90;;;;;;5006803;28;20038;-82
2023/09/17 04:37:40;;;;;;;2.60;2.40;;;18.00;99.90;;;;;;5009475;28;20441;-82
2023/09/17 04:40:08;;;;;;;2.35;1.15;;;17.90;99.90;;;;;;5003972;28;20053;-82
2023/09/17 04:42:36;;;;;;;2.10;1.27;;;17.90;99.90;;;;;;5017431;28;20053;-82
2023/09/17 04:45:06;;;;;;;1.70;1.52;;;17.90;99.90;;;;;;4999932;28;20041;-82
2023/09/17 04:47:37;;;;;;;1.40;1.30;;;17.90;99.90;;;;;;4999821;28;20046;-82
2023/09/17 04:50:08;;;;;;;1.42;1.33;;;17.70;99.90;;;;;;4997141;28;20034;-82
2023/09/17 04:52:36;;;;;;;4.22;1.83;;;17.70;99.90;;;;;;4997305;28;20034;-82
2023/09/17 04:55:03;;;;;;;14.07;2.25;;;17.70;99.90;;;;;;4999803;28;20363;-82
2023/09/17 04:57:29;;;;;;;1.20;1.08;;;17.60;99.90;;;;;;4995229;28;20033;-81
2023/09/17 04:59:55;;;;;;;1.30;0.98;;;17.50;99.90;;;;;;5004922;28;20093;-82
2023/09/17 05:02:22;;;;;;;1.45;1.20;;;17.50;99.90;;;;;;4989778;28;20034;-82
2023/09/17 05:04:48;;;;;;;1.60;1.17;;;17.50;99.90;;;;;;4997846;28;20456;-83
2023/09/17 05:07:14;;;;;;;3.22;1.55;;;17.50;99.90;;;;;;4997383;28;20039;-82
2023/09/17 05:09:41;;;;;;;1.95;1.77;;;17.40;99.90;;;;;;5008867;28;20046;-82
2023/09/17 05:12:08;;;;;;;1.27;0.57;;;17.40;99.90;;;;;;5008743;28;20049;-82
2023/09/17 05:14:35;;;;;;;4.60;1.10;;;17.40;99.90;;;;;;5012240;28;20053;-82
2023/09/17 05:17:02;;;;;;;3.08;1.60;;;17.50;99.90;;;;;;5006946;28;20050;-82
2023/09/17 05:19:28;;;;;;;1.23;1.13;;;17.50;99.90;;;;;;5009134;28;20395;-82
2023/09/17 05:21:54;;;;;;;3.35;1.63;;;17.60;99.90;;;;;;5001460;28;20037;-82
2023/09/17 05:24:21;;;;;;;2.95;1.45;;;17.60;99.90;;;;;;5002588;28;20379;-82
2023/09/17 05:26:47;;;;;;;1.67;1.05;;;17.70;99.90;;;;;;4986949;28;20337;-82
2023/09/17 05:29:16;;;;;;;2.28;1.30;;;17.70;99.90;;;;;;4999069;28;20040;-82
2023/09/17 05:31:44;;;;;;;;;;;17.80;99.90;;;;;;5010904;28;20638;-81
2023/09/17 05:34:13;;;;;;;1.98;1.13;;;17.80;99.90;;;;;;5015500;28;19973;-81
2023/09/17 05:36:39;;;;;;;3.80;0.90;;;17.80;99.90;;;;;;5008645;28;20053;-82
2023/09/17 05:39:06;;;;;;;5.22;1.92;;;17.80;99.90;;;;;;5011782;28;20045;-83
2023/09/17 05:41:33;;;;;;;1.95;1.60;;;17.90;99.90;;;;;;5002556;28;20037;-82
2023/09/17 05:44:00;;;;;;;3.25;2.35;;;17.90;99.90;;;;;;4997080;28;20487;-82
2023/09/17 05:46:27;;;;;;;2.90;1.52;;;17.90;99.90;;;;;;5002713;28;20050;-81
2023/09/17 05:48:54;;;;;;;3.75;1.48;;;18.00;99.90;;;;;;4996948;28;20049;-82
2023/09/17 05:51:20;;;;;;;4.43;1.48;;;18.10;99.90;;;;;;5008178;28;20038;-82
2023/09/17 05:53:46;;;;;;;1.67;1.55;;;18.10;99.90;;;;;;4997908;28;20037;-83
2023/09/17 05:56:12;;;;;;;6.65;3.40;;;18.20;99.90;;;;;;4994919;28;20037;-83
2023/09/17 05:58:39;;;;;;;4.68;2.63;;;18.40;99.90;;;;;;4992659;28;20412;-83
2023/09/17 06:01:07;;;;;;;3.58;1.33;;;18.60;99.90;;;;;;5009919;28;20034;-85
2023/09/17 06:03:33;;;;;;;2.03;1.83;;;18.80;92.90;;;;;;5006690;28;20045;-82
2023/09/17 06:05:59;;;;;;;2.50;1.38;;;18.90;9.40;;;;;;4992760;28;20045;-83
2023/09/17 06:08:28;;;;;;;3.90;1.80;;;18.90;1.00;;;;;;5000284;28;20452;-84
2023/09/17 06:10:55;;;;;;;1.38;1.05;;;19.00;1.00;;;;;;5008155;28;20045;-83
2023/09/17 06:13:22;;;;;;;1.40;1.13;;;18.90;1.00;;;;;;4996150;28;20038;-82
2023/09/17 06:15:49;;;;;;;3.00;2.03;;;18.90;1.00;;;;;;5013199;28;20042;-82
2023/09/17 06:18:17;;;;;;;1.98;1.52;;;18.90;1.00;;;;;;5007139;28;20061;-82
2023/09/17 06:20:43;;;;;;;1.58;1.48;;;18.90;1.00;;;;;;5006435;28;20042;-84
2023/09/17 06:23:10;;;;;;;2.25;1.35;;;19.00;1.00;;;;;;4999708;28;20030;-83
2023/09/17 06:25:36;;;;;;;2.92;2.10;;;19.20;1.00;;;;;;5001477;28;20054;-82
2023/09/17 06:28:03;;;;;;;0.73;0.73;;;19.30;1.00;;;;;;5007869;28;20419;-83
2023/09/17 06:30:30;;;;;;;0.95;0.75;;;19.40;1.00;;;;;;5007292;28;20044;-84
2023/09/17 06:32:56;;;;;;;1.70;0.77;;;19.60;1.00;;;;;;5002678;28;20037;-82
2023/09/17 06:35:22;;;;;;;2.55;1.50;;;19.70;1.00;;;;;;5007938;28;20038;-83
2023/09/17 06:37:49;;;;;;;1.40;0.73;;;19.90;99.90;;;;;;5011980;28;20038;-83
2023/09/17 06:40:17;;;;;;;4.43;2.08;;;20.10;99.90;;;;;;4995942;28;20046;-80
2023/09/17 06:42:43;;;;;;;14.07;2.70;;;20.30;99.90;;;;;;5000576;28;20038;-79
2023/09/17 06:45:11;;;;;;;3.40;0.68;;;20.40;99.90;;;;;;5004431;28;20041;-79
2023/09/17 06:47:37;;;;;;;0.80;0.80;;;20.60;99.90;;;;;;5007270;28;20062;-80
2023/09/17 06:50:04;;;;;;;1.17;0.73;;;20.70;99.90;;;;;;4996032;28;20034;-79
2023/09/17 06:52:30;;;;;;;1.02;1.00;;;20.80;99.90;;;;;;5004111;28;20356;-81
2023/09/17 06:54:56;;;;;;;1.17;1.08;;;20.90;99.90;;;;;;4998309;28;20039;-80
2023/09/17 06:57:22;;;;;;;2.15;1.27;;;21.00;99.90;;;;;;4994967;28;20034;-79
2023/09/17 06:59:48;;;;;;;1.52;1.30;;;21.00;99.90;;;;;;4997872;28;20573;-79
2023/09/17 07:02:14;;;;;;;2.28;0.50;;;21.10;99.90;;;;;;4994804;28;20039;-79
2023/09/17 07:04:40;;;;;;;0.93;0.60;;;21.20;99.90;;;;;;5008036;28;20030;-80
2023/09/17 07:07:06;;;;;;;4.18;1.10;;;21.20;99.90;;;;;;4998574;28;20038;-78
2023/09/17 07:09:33;;;;;;;2.70;1.63;;;21.20;99.90;;;;;;5005864;28;20376;-84
2023/09/17 07:11:59;;;;;;;1.23;1.13;;;21.20;99.90;;;;;;5000499;28;20031;-83
2023/09/17 07:14:25;;;;;;;1.92;1.52;;;21.30;99.90;;;;;;5005614;28;20294;-83
2023/09/17 07:16:51;;;;;;;1.58;1.48;;;21.40;82.90;;;;;;4995084;28;20053;-83
2023/09/17 07:19:18;;;;;;;3.88;1.40;;;21.50;71.90;;;;;;5002754;28;20034;-83
2023/09/17 07:21:44;;;;;;;7.18;1.65;;;21.70;37.00;;;;;;4998424;28;20037;-84
2023/09/17 07:24:10;;;;;;;1.38;0.70;;;21.80;1.00;;;;;;5000901;28;20026;-84
2023/09/17 07:26:37;;;;;;;2.33;1.30;;;21.80;1.00;;;;;;5001145;28;20021;-84
2023/09/17 07:29:03;;;;;;;1.05;0.95;;;21.80;1.00;;;;;;5001992;28;20034;-83
2023/09/17 07:31:30;;;;;;;2.35;1.92;;;21.80;1.00;;;;;;5004319;28;20059;-83
2023/09/17 07:33:56;;;;;;;2.45;1.55;;;21.90;1.00;;;;;;5004578;28;20041;-84
2023/09/17 07:36:22;;;;;;;1.50;0.85;;;22.00;1.00;;;;;;5001981;28;20027;-84
2023/09/17 07:38:48;;;;;;;0.98;0.65;;;22.20;1.00;;;;;;5001844;28;20045;-84
2023/09/17 07:41:14;;;;;;;2.40;0.80;;;22.30;1.00;;;;;;5000705;28;20041;-80
2023/09/17 07:43:41;;;;;;;2.67;1.98;;;22.50;1.00;;;;;;4994291;28;20045;-84
2023/09/17 07:46:11;;;;;;;0.90;0.88;;;22.50;1.00;;;;;;5001364;28;20025;-84
2023/09/17 07:48:37;;;;;;;;;;;22.70;1.00;;;;;;5009629;28;20030;-83
2023/09/17 07:51:04;;;;;;;3.45;1.52;;;23.00;1.00;;;;;;5016445;28;19959;-84
2023/09/17 07:53:30;;;;;;;1.00;0.93;;;23.10;99.90;;;;;;5007263;28;20026;-83
2023/09/17 07:55:56;;;;;;;2.15;1.70;;;23.20;99.90;;;;;;5009865;28;20034;-80
2023/09/17 07:58:23;;;;;;;1.42;1.23;;;23.20;99.90;;;;;;5008566;28;20030;-83
2023/09/17 08:00:49;;;;;;;0.50;0.50;;;23.50;99.90;;;;;;5008464;28;20026;-83
2023/09/17 08:03:19;;;;;;;0.88;0.82;;;23.40;99.90;;;;;;5004963;28;20475;-84
2023/09/17 08:05:49;;;;;;;1.00;0.70;;;23.50;99.90;;;;;;5003124;28;20011;-83
2023/09/17 08:08:15;;;;;;;2.13;1.13;;;23.60;99.90;;;;;;5015980;28;20049;-83
2023/09/17 08:10:42;;;;;;;0.68;0.50;;;23.70;99.90;;;;;;5009727;28;20367;-83
2023/09/17 08:13:08;;;;;;;0.95;0.80;;;23.90;99.90;;;;;;5002206;28;20392;-84
2023/09/17 08:15:35;;;;;;;1.08;0.85;;;24.10;99.90;;;;;;5003555;28;20034;-83
2023/09/17 08:18:01;;;;;;;0.80;0.55;;;24.30;99.90;;;;;;5009893;28;20037;-80
2023/09/17 08:20:28;;;;;;;1.70;0.82;;;24.30;99.90;;;;;;5003952;28;20056;-84
2023/09/17 08:22:54;;;;;;;0.60;0.60;;;24.10;99.90;;;;;;4999007;28;20205;-85
2023/09/17 08:25:20;;;;;;;2.58;1.40;;;24.00;99.90;;;;;;5004256;28;20026;-85
2023/09/17 08:27:47;;;;;;;1.42;0.88;;;24.10;99.90;;;;;;5009685;28;20046;-84
2023/09/17 08:30:15;;;;;;;0.80;0.73;;;24.20;99.90;;;;;;5006817;28;20050;-85
2023/09/17 08:32:44;;;;;;;9.43;1.88;;;24.50;99.90;;;;;;4997241;28;20063;-84
2023/09/17 08:35:14;;;;;;;1.35;0.70;;;24.80;99.90;;;;;;5005894;28;20450;-84
2023/09/17 08:37:42;;;;;;;;;;;24.90;99.90;;;;;;5002218;28;20376;-84
2023/09/17 08:40:09;;;;;;;0.70;0.70;;;24.90;99.90;;;;;;4999209;28;19914;-85
2023/09/17 08:42:40;;;;;;;1.27;1.17;;;24.90;99.90;;;;;;5017490;28;20037;-83
2023/09/17 08:45:07;;;;;;;0.65;0.65;;;24.90;99.90;;;;;;5026010;28;20041;-88
2023/09/17 08:47:34;;;;;;;0.50;0.45;;;24.90;99.90;;;;;;5022910;28;20052;-84
2023/09/17 08:50:00;;;;;;;2.20;1.80;;;25.30;99.90;;;;;;5012193;28;20034;-85
2023/09/17 08:52:31;;;;;;;1.35;1.15;;;24.90;99.90;;;;;;5010224;28;20033;-86
2023/09/17 08:54:58;;;;;;;0.90;0.82;;;24.80;99.90;;;;;;5012094;28;20034;-85
2023/09/17 08:57:26;;;;;;;1.83;1.13;;;25.00;99.90;;;;;;5002025;28;20026;-85
2023/09/17 09:00:09;;;;;;;0.63;0.55;;;25.10;99.90;;;;;;5008779;28;20049;-84
2023/09/17 09:02:44;;;;;;;1.10;0.70;;;25.10;99.90;;;;;;5021792;28;20060;-84
2023/09/17 09:05:12;;;;;;;0.95;0.80;;;24.90;99.90;;;;;;5019168;28;20041;-85
2023/09/17 09:07:39;;;;;;;0.68;0.63;;;25.10;99.90;;;;;;5011018;28;20050;-83
2023/09/17 09:10:06;;;;;;;1.38;0.65;;;24.80;99.90;;;;;;5007553;28;20387;-86
2023/09/17 09:12:33;;;;;;;2.38;1.38;;;24.50;99.90;;;;;;5002445;28;20045;-85
2023/09/17 09:15:00;;;;;;;2.67;0.68;;;24.80;99.90;;;;;;5006090;28;20034;-84
2023/09/17 09:17:26;;;;;;;1.75;0.98;;;24.90;99.90;;;;;;5021156;28;20040;-84
2023/09/17 09:19:55;;;;;;;1.48;0.77;;;25.20;99.90;;;;;;5015159;28;20049;-84
2023/09/17 09:22:22;;;;;;;1.02;0.90;;;25.80;84.20;;;;;;5012838;28;20467;-83
2023/09/17 09:24:49;;;;;;;0.73;0.60;;;25.90;72.50;;;;;;5021371;28;20042;-83
2023/09/17 09:27:15;;;;;;;1.75;1.30;;;25.80;82.40;;;;;;5019376;28;20034;-84
2023/09/17 09:29:44;;;;;;;0.98;0.98;;;25.70;62.50;;;;;;5022183;28;20383;-81
2023/09/17 09:32:11;;;;;;;0.73;0.73;;;26.00;71.40;;;;;;5017594;28;20041;-85
2023/09/17 09:34:41;;;;;;;2.70;2.03;;;26.30;44.60;;;;;;5030677;28;20040;-82
2023/09/17 09:37:10;;;;;;;;;;;26.60;22.00;;;;;;5024449;28;20105;-83
2023/09/17 09:39:37;;;;;;;0.50;0.40;;;26.80;24.80;;;;;;5013910;28;19909;-82
2023/09/17 09:42:07;;;;;;;0.95;0.60;;;26.50;28.60;;;;;;5010994;28;20028;-83
2023/09/17 09:44:35;;;;;;;3.22;0.93;;;26.50;21.80;;;;;;5007438;28;20037;-81
2023/09/17 09:47:02;;;;;;;0.75;0.73;;;26.40;27.60;;;;;;5000318;28;20363;-81
2023/09/17 09:49:38;;;;;;;0.75;0.73;;;26.40;14.90;;;;;;4997573;28;20033;-80
2023/09/17 09:52:04;;;;;;;0.30;0.30;;;26.50;8.50;;;;;;5002766;28;20045;-81
2023/09/17 09:54:30;;;;;;;0.75;0.57;;;26.40;2.40;;;;;;4996731;28;20026;-80
2023/09/17 09:56:58;;;;;;;0.93;0.75;;;26.30;8.60;;;;;;4997680;28;20022;-82
2023/09/17 09:59:25;;;;;;;0.82;0.77;;;26.40;5.90;;;;;;5008364;28;20034;-79
2023/09/17 10:01:51;;;;;;;1.27;0.95;;;26.50;13.60;;;;;;4999527;28;20046;-81
2023/09/17 10:04:18;;;;;;;1.15;0.70;;;26.50;1.00;;;;;;4997881;28;20027;-80
2023/09/17 10:06:45;;;;;;;1.13;1.02;;;26.40;3.60;;;;;;5002490;28;20022;-82
2023/09/17 10:09:13;;;;;;;1.50;0.73;;;26.20;1.00;;;;;;5005892;28;20113;-80
2023/09/17 10:11:39;;;;;;;0.35;0.35;;;26.30;1.00;;;;;;5000605;28;20037;-81
2023/09/17 10:14:06;;;;;;;0.52;0.50;;;26.40;1.70;;;;;;4995467;28;20030;-80
2023/09/17 10:16:34;;;;;;;0.40;0.40;;;26.50;1.00;;;;;;5005106;28;20375;-82
2023/09/17 10:19:02;;;;;;;0.52;0.50;;;26.40;1.00;;;;;;4996074;28;20045;-80
2023/09/17 10:21:29;;;;;;;0.10;0.10;;;26.30;1.00;;;;;;5000694;28;20341;-81
2023/09/17 10:23:56;;;;;;;0.30;0.30;;;26.40;1.00;;;;;;4995736;28;20371;-81
2023/09/17 10:26:24;;;;;;;0.43;0.30;;;26.40;1.00;;;;;;5000551;28;20029;-81
2023/09/17 10:28:51;;;;;;;1.15;0.52;;;26.50;1.00;;;;;;4999332;28;20038;-81
2023/09/17 10:31:19;;;;;;;1.95;1.52;;;26.50;1.00;;;;;;5000104;28;20061;-80
2023/09/17 10:33:47;;;;;;;2.28;0.65;;;26.60;1.00;;;;;;4993855;28;20026;-80
2023/09/17 10:36:14;;;;;;;1.13;1.02;;;26.80;1.00;;;;;;4995981;28;20030;-80
2023/09/17 10:38:43;;;;;;;0.40;0.35;;;26.90;1.00;;;;;;4995027;28;20053;-82
2023/09/17 10:41:11;;;;;;;6.82;0.90;;;26.90;1.00;;;;;;4995877;28;20034;-80
2023/09/17 10:43:38;;;;;;;1.45;1.02;;;27.10;1.00;;;;;;5001667;28;20030;-82
2023/09/17 10:46:08;;;;;;;0.50;0.50;;;27.10;1.00;;;;;;5000600;28;20030;-82
2023/09/17 10:48:35;;;;;;;0.20;0.20;;;27.10;1.00;;;;;;5000696;28;20034;-81
2023/09/17 10:51:03;;;;;;;0.82;0.60;;;27.20;1.00;;;;;;4996879;28;20045;-82
2023/09/17 10:53:30;;;;;;;0.93;0.47;;;27.40;1.00;;;;;;5001346;28;20375;-81
2023/09/17 10:56:06;;;;;;;1.02;0.55;;;27.40;1.00;;;;;;5012177;28;20384;-80
2023/09/17 10:58:45;;;;;;;0.98;0.88;;;27.40;1.00;;;;;;5004378;28;20053;-82
2023/09/17 11:01:15;;;;;;;1.27;0.50;;;27.40;1.00;;;;;;5001887;28;20038;-83
2023/09/17 11:03:52;;;;;;;0.65;0.45;;;27.30;1.00;;;;;;5007673;28;20049;-84
2023/09/17 11:06:25;;;;;;;0.60;0.45;;;27.40;1.00;;;;;;5000040;28;20042;-81
2023/09/17 11:08:56;;;;;;;0.80;0.65;;;27.20;1.00;;;;;;5002987;28;20042;-82
2023/09/17 11:11:24;;;;;;;0.30;0.30;;;27.40;1.00;;;;;;4995700;28;20034;-82
2023/09/17 11:13:53;;;;;;;2.30;1.00;;;27.60;1.00;;;;;;4996919;28;20023;-83
2023/09/17 11:16:20;;;;;;;0.50;0.50;;;27.70;1.00;;;;;;5006434;28;20026;-82
2023/09/17 11:19:16;;;;;;;1.90;0.88;;;27.80;1.00;;;;;;5002085;28;20349;-82
2023/09/17 11:22:06;;;;;;;0.50;0.50;;;27.60;1.00;;;;;;5008293;28;20443;-85
2023/09/17 11:24:33;;;;;;;0.43;0.43;;;27.60;1.00;;;;;;4998928;28;20066;-82
2023/09/17 11:27:04;;;;;;;0.70;0.70;;;27.80;1.00;;;;;;5002363;28;20026;-83
2023/09/17 11:29:41;;;;;;;0.93;0.40;;;27.90;1.00;;;;;;5010915;28;20058;-84
2023/09/17 11:32:08;;;;;;;0.40;0.38;;;27.90;1.00;;;;;;5005903;28;20026;-85
2023/09/17 11:34:38;;;;;;;0.65;0.60;;;27.80;1.00;;;;;;5016164;28;20033;-84
2023/09/17 11:37:06;;;;;;;0.82;0.80;;;27.80;1.00;;;;;;5019472;28;20052;-84
2023/09/17 11:39:36;;;;;;;1.00;0.38;;;27.80;1.00;;;;;;5024445;28;20038;-85
2023/09/17 11:42:07;;;;;;;0.57;0.38;;;28.10;1.00;;;;;;5025896;28;20140;-85
2023/09/17 11:44:35;;;;;;;0.93;0.60;;;28.20;1.00;;;;;;5019661;28;20032;-86
2023/09/17 11:47:03;;;;;;;1.05;0.80;;;28.30;1.00;;;;;;5030743;28;20044;-86
2023/09/17 11:49:29;;;;;;;0.50;0.43;;;28.30;1.00;;;;;;5020921;28;20053;-85
2023/09/17 11:51:57;;;;;;;1.55;0.93;;;28.30;1.00;;;;;;5012129;28;20045;-85
2023/09/17 11:54:30;;;;;;;0.40;0.40;;;28.00;1.00;;;;;;5013487;28;20463;-85
2023/09/17 11:56:57;;;;;;;0.57;0.47;;;27.90;1.00;;;;;;5007272;28;20030;-85
2023/09/17 11:59:24;;;;;;;1.70;0.95;;;27.90;1.00;;;;;;5009812;28;20034;-85
2023/09/17 12:01:55;;;;;;;0.38;0.38;;;27.90;1.00;;;;;;5013015;28;20049;-85
2023/09/17 12:04:25;;;;;;;1.13;0.68;;;28.00;1.00;;;;;;5003174;28;20026;-84
2023/09/17 12:06:53;;;;;;;0.98;0.73;;;28.10;1.00;;;;;;5014109;28;20034;-85
2023/09/17 12:12:05;;;;;;;0.28;0.28;;;28.10;1.00;;;;;;5006935;28;20384;-85
2023/09/17 12:14:35;;;;;;;1.50;1.02;;;28.10;1.00;;;;;;5004705;28;20022;-85
2023/09/17 12:17:02;;;;;;;1.40;0.35;;;28.40;1.00;;;;;;5007905;28;20035;-83
2023/09/17 12:19:29;;;;;;;0.38;0.38;;;28.60;1.00;;;;;;5003346;28;20029;-82
2023/09/17 12:21:59;;;;;;;0.70;0.60;;;28.70;1.00;;;;;;5007642;28;20032;-84
2023/09/17 12:24:44;;;;;;;0.32;0.32;;;28.80;1.00;;;;;;5004166;28;20026;-84
2023/09/17 12:27:25;;;;;;;2.05;1.00;;;29.00;1.00;;;;;;5003355;28;20035;-82
2023/09/17 12:29:54;;;;;;;0.68;0.60;;;28.80;1.00;;;;;;5007793;28;20050;-82
2023/09/17 12:32:22;;;;;;;;;;;29.00;1.00;;;;;;5001785;28;20045;-83
2023/09/17 12:34:52;;;;;;;1.30;0.82;;;28.90;1.00;;;;;;5005081;28;19905;-84
2023/09/17 12:37:19;;;;;;;0.30;0.30;;;28.90;1.00;;;;;;5006141;28;20048;-84
2023/09/17 12:39:52;;;;;;;0.52;0.50;;;28.90;1.00;;;;;;5005140;28;20049;-84
2023/09/17 12:42:21;;;;;;;2.88;1.02;;;29.00;1.00;;;;;;5003161;28;20022;-82
2023/09/17 12:44:47;;;;;;;0.50;0.50;;;29.10;1.00;;;;;;5007716;28;20030;-84
2023/09/17 12:47:15;;;;;;;0.45;0.30;;;29.30;1.00;;;;;;5004531;28;20026;-84
2023/09/17 12:49:42;;;;;;;1.13;0.80;;;29.30;1.00;;;;;;5000683;28;20072;-84
2023/09/17 12:52:13;;;;;;;1.88;1.23;;;29.20;1.00;;;;;;5007342;28;20029;-84
2023/09/17 12:54:40;;;;;;;0.47;0.43;;;29.20;1.00;;;;;;5004560;28;20057;-84
2023/09/17 12:57:07;;;;;;;0.88;0.77;;;29.10;1.00;;;;;;5021672;28;20034;-85